createdAt,value
2023-07-21T00:01:12.048Z,2.15
2023-07-21T00:03:40.107Z,3.20
2023-07-21T00:06:10.822Z,3.90
2023-07-21T00:08:39.377Z,4.82
2023-07-21T00:11:06.814Z,3.08
2023-07-21T00:13:37.517Z,4.70
2023-07-21T00:16:06.175Z,3.55
2023-07-21T00:18:34.691Z,2.75
2023-07-21T00:21:03.256Z,5.82
2023-07-21T00:23:32.920Z,3.83
2023-07-21T00:26:02.139Z,3.00
2023-07-21T00:28:29.886Z,2.35
2023-07-21T00:30:57.376Z,2.65
2023-07-21T00:33:26.572Z,2.78
2023-07-21T00:35:54.259Z,5.25
2023-07-21T00:38:22.997Z,5.10
2023-07-21T00:40:50.725Z,6.43
2023-07-21T00:43:19.762Z,3.92
2023-07-21T00:45:50.702Z,5.18
2023-07-21T00:48:19.331Z,7.20
2023-07-21T00:50:51.179Z,3.78
2023-07-21T00:53:20.363Z,2.85
2023-07-21T00:55:49.492Z,3.17
2023-07-21T00:58:19.246Z,3.25
2023-07-21T01:00:47.866Z,3.10
2023-07-21T01:03:18.992Z,3.90
2023-07-21T01:05:52.526Z,3.35
2023-07-21T01:08:21.457Z,5.05
2023-07-21T01:10:50.232Z,2.78
2023-07-21T01:13:19.955Z,3.10
2023-07-21T01:15:50.913Z,3.75
2023-07-21T01:18:20.292Z,3.58
2023-07-21T01:20:49.672Z,5.88
2023-07-21T01:23:52.960Z,4.82
2023-07-21T01:26:21.784Z,4.93
2023-07-21T01:28:49.998Z,6.38
2023-07-21T01:31:18.286Z,7.40
2023-07-21T01:33:47.392Z,7.63
2023-07-21T01:36:16.486Z,15.10
2023-07-21T01:38:44.721Z,12.77
2023-07-21T01:41:13.941Z,12.45
2023-07-21T01:43:41.726Z,10.60
2023-07-21T01:46:12.401Z,9.63
2023-07-21T01:48:39.878Z,9.80
2023-07-21T01:51:07.760Z,9.90
2023-07-21T01:53:38.854Z,11.65
2023-07-21T01:56:26.485Z,9.35
2023-07-21T01:58:55.579Z,10.70
2023-07-21T02:01:24.649Z,10.85
2023-07-21T02:03:52.247Z,11.38
2023-07-21T02:06:19.850Z,7.72
2023-07-21T02:08:47.392Z,6.75
2023-07-21T02:11:15.197Z,9.30
2023-07-21T02:14:05.250Z,6.07
2023-07-21T02:16:32.966Z,5.75
2023-07-21T02:19:01.533Z,7.03
2023-07-21T02:21:29.695Z,4.00
2023-07-21T02:23:57.267Z,7.78
2023-07-21T02:26:25.301Z,5.45
2023-07-21T02:28:53.757Z,6.07
2023-07-21T02:31:22.809Z,5.32
2023-07-21T02:33:50.275Z,5.65
2023-07-21T02:36:18.044Z,6.05
2023-07-21T02:38:45.461Z,7.50
2023-07-21T02:41:12.837Z,8.02
2023-07-21T02:43:40.486Z,6.53
2023-07-21T02:46:08.177Z,4.90
2023-07-21T02:48:35.732Z,7.20
2023-07-21T02:51:04.078Z,7.50
2023-07-21T02:53:37.995Z,11.90
2023-07-21T02:56:06.335Z,6.75
2023-07-21T02:58:52.211Z,9.10
2023-07-21T03:01:21.953Z,10.65
2023-07-21T03:03:50.190Z,5.35
2023-07-21T03:06:18.175Z,3.88
2023-07-21T03:08:45.638Z,4.57
2023-07-21T03:11:15.550Z,5.35
2023-07-21T03:14:01.230Z,5.05
2023-07-21T03:16:30.594Z,4.60
2023-07-21T03:18:58.195Z,5.22
2023-07-21T03:21:27.587Z,5.25
2023-07-21T03:23:57.039Z,5.80
2023-07-21T03:26:28.319Z,4.93
2023-07-21T03:28:56.963Z,6.43
2023-07-21T03:31:26.539Z,6.15
2023-07-21T03:34:00.806Z,5.07
2023-07-21T03:36:30.429Z,5.53
2023-07-21T03:38:59.526Z,7.50
2023-07-21T03:41:26.930Z,5.63
2023-07-21T03:43:54.498Z,5.32
2023-07-21T03:46:22.142Z,8.18
2023-07-21T03:48:55.571Z,6.53
2023-07-21T03:51:23.294Z,7.18
2023-07-21T03:53:50.767Z,5.43
2023-07-21T03:56:22.775Z,6.68
2023-07-21T03:58:50.816Z,5.78
2023-07-21T04:01:18.290Z,5.97
2023-07-21T04:03:45.870Z,5.35
2023-07-21T04:06:16.174Z,3.42
2023-07-21T04:08:43.535Z,9.73
2023-07-21T04:11:10.995Z,7.32
2023-07-21T04:13:38.415Z,7.70
2023-07-21T04:16:06.904Z,6.72
2023-07-21T04:18:34.527Z,6.57
2023-07-21T04:21:03.593Z,5.43
2023-07-21T04:23:30.995Z,5.68
2023-07-21T04:25:59.513Z,7.43
2023-07-21T04:28:26.967Z,6.57
2023-07-21T04:30:55.468Z,7.60
2023-07-21T04:33:23.227Z,6.25
2023-07-21T04:35:52.471Z,3.70
2023-07-21T04:38:25.930Z,7.53
2023-07-21T04:41:00.273Z,4.95
2023-07-21T04:43:27.766Z,7.80
2023-07-21T04:45:56.846Z,6.25
2023-07-21T04:48:31.286Z,8.02
2023-07-21T04:50:59.337Z,9.43
2023-07-21T04:53:26.884Z,9.93
2023-07-21T04:55:58.418Z,9.00
2023-07-21T04:58:28.310Z,12.55
2023-07-21T05:00:55.944Z,11.85
2023-07-21T05:03:23.813Z,11.20
2023-07-21T05:05:51.488Z,8.32
2023-07-21T05:08:22.081Z,10.00
2023-07-21T05:10:49.760Z,10.55
2023-07-21T05:13:19.312Z,5.88
2023-07-21T05:15:55.825Z,11.25
2023-07-21T05:18:55.543Z,5.93
2023-07-21T05:21:47.165Z,8.20
2023-07-21T05:24:33.372Z,8.65
2023-07-21T05:27:01.701Z,9.30
2023-07-21T05:29:51.270Z,7.80
2023-07-21T05:32:18.777Z,13.52
2023-07-21T05:34:52.333Z,8.93
2023-07-21T05:37:19.815Z,8.95
2023-07-21T05:39:49.825Z,8.98
2023-07-21T05:42:21.425Z,9.73
2023-07-21T05:44:50.961Z,8.07
2023-07-21T05:47:20.501Z,13.13
2023-07-21T05:49:53.204Z,8.02
2023-07-21T05:52:21.068Z,11.48
2023-07-21T05:54:49.083Z,7.93
2023-07-21T05:57:18.789Z,8.98
2023-07-21T05:59:49.370Z,8.60
2023-07-21T06:02:16.916Z,12.27
2023-07-21T06:04:50.971Z,7.75
2023-07-21T06:07:32.109Z,9.13
2023-07-21T06:10:22.693Z,6.45
2023-07-21T06:13:01.018Z,10.55
2023-07-21T06:15:41.172Z,8.30
2023-07-21T06:18:47.089Z,8.77
2023-07-21T06:21:14.637Z,8.50
2023-07-21T06:23:45.857Z,7.95
2023-07-21T06:26:13.450Z,5.32
2023-07-21T06:28:40.961Z,12.45
2023-07-21T06:31:11.910Z,9.15
2023-07-21T06:33:57.769Z,8.05
2023-07-21T06:37:00.413Z,7.93
2023-07-21T06:39:35.455Z,6.28
2023-07-21T06:42:23.191Z,8.45
2023-07-21T06:45:02.412Z,7.85
2023-07-21T06:47:36.123Z,7.07
2023-07-21T06:50:12.560Z,5.45
2023-07-21T06:52:46.463Z,6.68
2023-07-21T06:55:13.934Z,7.72
2023-07-21T06:57:41.323Z,5.95
2023-07-21T07:00:09.637Z,6.95
2023-07-21T07:02:36.983Z,10.00
2023-07-21T07:05:04.686Z,6.35
2023-07-21T07:07:32.168Z,10.10
2023-07-21T07:09:59.703Z,5.05
2023-07-21T07:12:27.147Z,7.22
2023-07-21T07:14:54.606Z,7.40
2023-07-21T07:17:22.190Z,5.18
2023-07-21T07:19:50.032Z,7.25
2023-07-21T07:22:18.296Z,9.18
2023-07-21T07:24:45.840Z,6.45
2023-07-21T07:27:13.382Z,7.65
2023-07-21T07:29:41.736Z,5.43
2023-07-21T07:32:09.676Z,6.60
2023-07-21T07:34:38.140Z,11.93
2023-07-21T07:37:06.058Z,9.88
2023-07-21T07:39:33.590Z,5.97
2023-07-21T07:42:05.466Z,12.82
2023-07-21T07:44:34.667Z,8.05
2023-07-21T07:47:02.214Z,8.90
2023-07-21T07:49:29.651Z,6.75
2023-07-21T07:51:57.126Z,7.65
2023-07-21T07:54:24.636Z,7.45
2023-07-21T07:56:52.639Z,8.82
2023-07-21T07:59:20.049Z,8.75
2023-07-21T08:01:47.549Z,9.48
2023-07-21T08:04:15.482Z,8.73
2023-07-21T08:06:42.996Z,6.65
2023-07-21T08:09:11.393Z,5.70
2023-07-21T08:11:39.338Z,6.85
2023-07-21T08:14:06.888Z,6.00
2023-07-21T08:16:37.314Z,10.10
2023-07-21T08:19:04.835Z,6.45
2023-07-21T08:21:32.939Z,5.28
2023-07-21T08:24:00.260Z,8.88
2023-07-21T08:26:27.674Z,3.55
2023-07-21T08:28:56.891Z,8.48
2023-07-21T08:31:24.649Z,7.05
2023-07-21T08:33:54.259Z,6.10
2023-07-21T08:36:21.587Z,6.55
2023-07-21T08:38:51.145Z,6.40
2023-07-21T08:41:21.064Z,6.25
2023-07-21T08:43:52.107Z,6.85
2023-07-21T08:46:20.822Z,5.38
2023-07-21T08:48:50.560Z,5.80
2023-07-21T08:51:18.081Z,10.80
2023-07-21T08:53:45.585Z,5.45
2023-07-21T08:56:13.073Z,9.77
2023-07-21T08:58:40.674Z,6.32
2023-07-21T09:01:10.417Z,6.78
2023-07-21T09:03:46.665Z,13.90
2023-07-21T09:06:15.571Z,11.75
2023-07-21T09:08:48.810Z,8.73
2023-07-21T09:11:18.161Z,15.30
2023-07-21T09:13:57.413Z,7.60
2023-07-21T09:16:25.249Z,13.82
2023-07-21T09:18:55.666Z,6.72
2023-07-21T09:21:25.715Z,8.70
2023-07-21T09:24:05.275Z,10.43
2023-07-21T09:26:33.264Z,8.65
2023-07-21T09:29:00.927Z,7.88
2023-07-21T09:31:35.808Z,5.85
2023-07-21T09:34:10.970Z,4.43
2023-07-21T09:36:45.574Z,8.27
2023-07-21T09:39:16.130Z,8.43
2023-07-21T09:41:44.872Z,6.30
2023-07-21T09:44:14.538Z,8.52
2023-07-21T09:46:42.685Z,11.35
2023-07-21T09:49:10.084Z,7.32
2023-07-21T09:51:40.627Z,7.72
2023-07-21T09:54:10.914Z,9.73
2023-07-21T09:56:40.893Z,7.50
2023-07-21T09:59:11.461Z,7.68
2023-07-21T10:01:40.410Z,7.78
2023-07-21T10:04:10.094Z,9.02
2023-07-21T10:06:38.084Z,7.38
2023-07-21T10:09:10.615Z,5.53
2023-07-21T10:11:43.387Z,7.47
2023-07-21T10:14:31.257Z,7.65
2023-07-21T10:16:58.580Z,11.07
2023-07-21T10:19:29.475Z,8.07
2023-07-21T10:21:57.872Z,4.13
2023-07-21T10:24:33.633Z,8.43
2023-07-21T10:27:07.023Z,4.47
2023-07-21T10:29:34.729Z,9.90
2023-07-21T10:32:06.164Z,9.38
2023-07-21T10:34:38.246Z,6.03
2023-07-21T10:37:06.823Z,4.30
2023-07-21T10:39:38.279Z,6.00
2023-07-21T10:42:07.754Z,6.97
2023-07-21T10:44:36.518Z,5.90
2023-07-21T10:47:05.264Z,5.43
2023-07-21T10:49:33.048Z,3.83
2023-07-21T10:52:00.383Z,6.93
2023-07-21T10:54:27.707Z,4.95
2023-07-21T10:56:55.032Z,4.50
2023-07-21T10:59:22.511Z,5.97
2023-07-21T11:01:52.425Z,4.47
2023-07-21T11:04:21.771Z,5.00
2023-07-21T11:06:51.849Z,5.22
2023-07-21T11:09:21.285Z,8.45
2023-07-21T11:11:53.908Z,3.10
2023-07-21T11:14:28.992Z,4.22
2023-07-21T11:16:58.080Z,2.38
2023-07-21T11:19:27.789Z,4.55
2023-07-21T11:21:59.459Z,4.13
2023-07-21T11:24:29.906Z,3.47
2023-07-21T11:27:17.719Z,2.85
2023-07-21T11:29:45.560Z,2.60
2023-07-21T11:32:24.940Z,2.22
2023-07-21T11:35:00.590Z,5.00
2023-07-21T11:37:37.544Z,3.08
2023-07-21T11:40:10.162Z,4.00
2023-07-21T11:42:50.672Z,2.70
2023-07-21T11:45:38.445Z,5.03
2023-07-21T11:48:21.376Z,2.20
2023-07-21T11:50:56.390Z,2.03
2023-07-21T11:53:25.196Z,4.28
2023-07-21T11:55:53.439Z,2.20
2023-07-21T11:58:22.097Z,2.28
2023-07-21T12:00:50.501Z,2.00
2023-07-21T12:03:18.495Z,2.10
2023-07-21T12:05:46.764Z,3.60
2023-07-21T12:08:14.157Z,2.83
2023-07-21T12:10:41.598Z,5.38
2023-07-21T12:13:09.098Z,2.05
2023-07-21T12:15:36.417Z,3.08
2023-07-21T12:18:04.838Z,2.03
2023-07-21T12:20:32.326Z,2.72
2023-07-21T12:22:59.817Z,7.05
2023-07-21T12:25:27.222Z,5.32
2023-07-21T12:27:54.536Z,3.97
2023-07-21T12:30:21.969Z,2.20
2023-07-21T12:32:49.696Z,2.25
2023-07-21T12:35:17.214Z,2.53
2023-07-21T12:37:44.455Z,1.92
2023-07-21T12:40:14.870Z,1.65
2023-07-21T12:42:42.481Z,1.73
2023-07-21T12:45:10.437Z,0.82
2023-07-21T12:47:38.847Z,1.85
2023-07-21T12:50:06.861Z,2.78
2023-07-21T12:52:34.499Z,1.25
2023-07-21T12:55:02.095Z,3.00
2023-07-21T12:57:29.567Z,0.68
2023-07-21T12:59:56.895Z,1.80
2023-07-21T13:02:24.240Z,1.02
2023-07-21T13:04:51.932Z,1.60
2023-07-21T13:07:19.734Z,2.05
2023-07-21T13:09:47.055Z,3.42
2023-07-21T13:12:14.588Z,4.22
2023-07-21T13:14:42.171Z,3.60
2023-07-21T13:17:09.857Z,3.97
2023-07-21T13:19:40.455Z,5.47
2023-07-21T13:22:08.170Z,2.55
2023-07-21T13:24:35.625Z,1.73
2023-07-21T13:27:03.133Z,2.03
2023-07-21T13:29:30.459Z,1.60
2023-07-21T13:31:57.733Z,2.45
2023-07-21T13:34:26.590Z,3.90
2023-07-21T13:36:54.655Z,0.77
2023-07-21T13:39:22.026Z,1.10
2023-07-21T13:41:49.305Z,1.88
2023-07-21T13:44:16.842Z,0.88
2023-07-21T13:46:44.325Z,1.27
2023-07-21T13:49:13.121Z,3.60
2023-07-21T13:51:40.475Z,0.52
2023-07-21T13:54:07.814Z,2.95
2023-07-21T13:56:35.346Z,1.15
2023-07-21T13:59:02.886Z,1.88
2023-07-21T14:01:30.540Z,0.95
2023-07-21T14:03:57.918Z,0.73
2023-07-21T14:06:25.565Z,3.42
2023-07-21T14:08:53.753Z,1.35
2023-07-21T14:11:21.056Z,0.95
2023-07-21T14:13:48.441Z,1.13
2023-07-21T14:16:15.762Z,2.20
2023-07-21T14:18:43.178Z,0.88
2023-07-21T14:21:10.565Z,1.20
2023-07-21T14:23:38.069Z,1.42
2023-07-21T14:26:05.427Z,2.80
2023-07-21T14:28:32.714Z,0.50
2023-07-21T14:31:00.117Z,0.90
2023-07-21T14:33:27.527Z,1.02
2023-07-21T14:35:54.855Z,1.35
2023-07-21T14:38:22.580Z,0.88
2023-07-21T14:40:50.569Z,2.58
2023-07-21T14:43:19.772Z,2.28
2023-07-21T14:45:47.454Z,1.60
2023-07-21T14:48:15.452Z,5.40
2023-07-21T14:50:42.798Z,1.45
2023-07-21T14:53:10.264Z,1.52
2023-07-21T14:55:37.628Z,1.30
2023-07-21T14:58:04.912Z,1.05
2023-07-21T15:00:32.362Z,3.40
2023-07-21T15:02:59.860Z,0.75
2023-07-21T15:05:27.422Z,0.70
2023-07-21T15:07:55.326Z,0.90
2023-07-21T15:10:22.725Z,5.00
2023-07-21T15:12:50.395Z,2.17
2023-07-21T15:15:17.857Z,4.68
2023-07-21T15:17:45.478Z,3.17
2023-07-21T15:20:17.397Z,1.50
2023-07-21T15:22:46.767Z,1.98
2023-07-21T15:25:17.677Z,2.47
2023-07-21T15:27:45.075Z,3.08
2023-07-21T15:30:12.679Z,4.68
2023-07-21T15:32:40.115Z,1.02
2023-07-21T15:35:08.326Z,0.90
2023-07-21T15:37:35.986Z,1.65
2023-07-21T15:40:08.577Z,1.05
2023-07-21T15:42:35.880Z,1.55
2023-07-21T15:45:03.559Z,1.20
2023-07-21T15:47:31.054Z,1.75
2023-07-21T15:49:58.488Z,1.27
2023-07-21T15:52:25.948Z,1.02
2023-07-21T15:54:53.521Z,1.13
2023-07-21T15:57:20.835Z,1.05
2023-07-21T15:59:48.304Z,2.55
2023-07-21T16:02:15.741Z,1.00
2023-07-21T16:04:44.149Z,1.25
2023-07-21T16:07:11.890Z,0.60
2023-07-21T16:09:39.629Z,2.22
2023-07-21T16:12:07.718Z,3.35
2023-07-21T16:14:35.186Z,2.10
2023-07-21T16:17:02.481Z,2.97
2023-07-21T16:19:29.846Z,0.90
2023-07-21T16:21:57.260Z,1.17
2023-07-21T16:24:24.703Z,0.90
2023-07-21T16:26:52.236Z,3.40
2023-07-21T16:29:19.607Z,2.17
2023-07-21T16:31:48.171Z,1.38
2023-07-21T16:34:15.632Z,1.80
2023-07-21T16:36:43.868Z,4.40
2023-07-21T16:39:11.291Z,1.35
2023-07-21T16:41:38.975Z,1.52
2023-07-21T16:44:06.415Z,1.77
2023-07-21T16:46:33.920Z,1.80
2023-07-21T16:49:01.318Z,2.30
2023-07-21T16:51:28.948Z,1.10
2023-07-21T16:53:56.557Z,2.15
2023-07-21T16:56:23.984Z,1.33
2023-07-21T16:58:51.660Z,2.53
2023-07-21T17:01:19.310Z,1.48
2023-07-21T17:03:46.744Z,1.67
2023-07-21T17:06:14.097Z,0.77
2023-07-21T17:08:41.423Z,0.85
2023-07-21T17:11:08.827Z,3.00
2023-07-21T17:13:36.183Z,2.55
2023-07-21T17:16:03.606Z,2.70
2023-07-21T17:18:31.090Z,1.73
2023-07-21T17:20:58.460Z,1.33
2023-07-21T17:23:26.154Z,7.78
2023-07-21T17:25:53.636Z,1.42
2023-07-21T17:28:21.155Z,0.95
2023-07-21T17:30:48.495Z,4.32
2023-07-21T17:33:15.967Z,2.03
2023-07-21T17:35:44.479Z,3.17
2023-07-21T17:38:11.937Z,3.10
2023-07-21T17:40:39.306Z,4.88
2023-07-21T17:43:06.805Z,3.72
2023-07-21T17:45:34.124Z,2.75
2023-07-21T17:48:02.866Z,3.72
2023-07-21T17:50:30.298Z,0.75
2023-07-21T17:52:57.673Z,2.85
2023-07-21T17:55:24.965Z,2.53
2023-07-21T17:57:52.447Z,1.23
2023-07-21T18:00:21.494Z,0.80
2023-07-21T18:02:49.224Z,1.48
2023-07-21T18:05:17.003Z,0.95
2023-07-21T18:07:44.311Z,3.75
2023-07-21T18:10:11.833Z,1.38
2023-07-21T18:12:39.596Z,1.85
2023-07-21T18:15:08.333Z,2.95
2023-07-21T18:17:35.871Z,1.00
2023-07-21T18:20:05.153Z,4.55
2023-07-21T18:22:32.434Z,4.88
2023-07-21T18:25:00.020Z,1.42
2023-07-21T18:27:27.327Z,2.60
2023-07-21T18:29:54.621Z,0.98
2023-07-21T18:32:22.077Z,3.53
2023-07-21T18:34:49.365Z,2.45
2023-07-21T18:37:17.888Z,2.42
2023-07-21T18:39:45.478Z,3.13
2023-07-21T18:42:12.919Z,1.08
2023-07-21T18:44:40.331Z,2.83
2023-07-21T18:47:07.693Z,0.70
2023-07-21T18:49:35.312Z,1.55
2023-07-21T18:52:02.814Z,2.65
2023-07-21T18:54:30.068Z,2.58
2023-07-21T18:56:57.377Z,2.20
2023-07-21T18:59:24.633Z,2.70
2023-07-21T19:01:52.700Z,0.60
2023-07-21T19:04:20.874Z,3.25
2023-07-21T19:06:48.152Z,2.17
2023-07-21T19:09:15.549Z,2.78
2023-07-21T19:11:42.838Z,1.60
2023-07-21T19:14:10.372Z,0.73
2023-07-21T19:16:37.802Z,4.38
2023-07-21T19:19:05.309Z,4.55
2023-07-21T19:21:32.636Z,2.92
2023-07-21T19:24:01.441Z,2.45
2023-07-21T19:26:28.956Z,4.75
2023-07-21T19:28:56.181Z,1.73
2023-07-21T19:31:23.764Z,1.80
2023-07-21T19:33:51.430Z,2.05
2023-07-21T19:36:18.890Z,1.48
2023-07-21T19:38:46.292Z,1.77
2023-07-21T19:41:14.007Z,2.10
2023-07-21T19:43:41.475Z,3.08
2023-07-21T19:46:16.465Z,2.97
2023-07-21T19:48:43.900Z,1.88
2023-07-21T19:51:13.244Z,1.48
2023-07-21T19:53:43.845Z,1.92
2023-07-21T19:56:16.615Z,2.80
2023-07-21T19:58:44.607Z,1.05
2023-07-21T20:01:12.477Z,1.25
2023-07-21T20:03:41.636Z,1.88
2023-07-21T20:06:10.652Z,2.15
2023-07-21T20:08:38.237Z,1.42
2023-07-21T20:11:05.694Z,4.80
2023-07-21T20:13:33.358Z,5.47
2023-07-21T20:16:00.726Z,3.15
2023-07-21T20:18:28.221Z,2.80
2023-07-21T20:20:55.678Z,3.83
2023-07-21T20:23:23.170Z,1.83
2023-07-21T20:25:50.836Z,3.35
2023-07-21T20:28:18.520Z,2.42
2023-07-21T20:30:46.369Z,3.25
2023-07-21T20:33:13.914Z,3.78
2023-07-21T20:35:45.634Z,2.72
2023-07-21T20:38:14.700Z,2.25
2023-07-21T20:40:44.061Z,2.22
2023-07-21T20:43:11.859Z,2.05
2023-07-21T20:45:41.630Z,1.63
2023-07-21T20:48:10.413Z,9.50
2023-07-21T20:50:40.653Z,2.50
2023-07-21T20:53:08.048Z,4.40
2023-07-21T20:55:35.411Z,1.55
2023-07-21T20:58:02.759Z,3.47
2023-07-21T21:00:30.067Z,1.35
2023-07-21T21:02:57.426Z,3.97
2023-07-21T21:05:24.862Z,1.92
2023-07-21T21:07:52.261Z,1.65
2023-07-21T21:10:19.672Z,2.72
2023-07-21T21:12:47.162Z,1.13
2023-07-21T21:15:14.553Z,3.45
2023-07-21T21:17:42.025Z,2.15
2023-07-21T21:20:09.745Z,3.03
2023-07-21T21:22:37.406Z,1.95
2023-07-21T21:25:05.031Z,1.10
2023-07-21T21:27:32.366Z,5.20
2023-07-21T21:29:59.860Z,6.07
2023-07-21T21:32:27.368Z,1.08
2023-07-21T21:34:54.730Z,1.55
2023-07-21T21:37:22.086Z,1.38
2023-07-21T21:39:49.523Z,1.70
2023-07-21T21:42:16.897Z,3.45
2023-07-21T21:44:44.290Z,2.03
2023-07-21T21:47:11.686Z,1.70
2023-07-21T21:49:39.052Z,2.38
2023-07-21T21:52:06.622Z,2.28
2023-07-21T21:54:33.887Z,3.28
2023-07-21T21:57:01.205Z,2.97
2023-07-21T21:59:28.512Z,1.77
2023-07-21T22:01:55.915Z,1.10
2023-07-21T22:04:23.391Z,1.00
2023-07-21T22:06:50.767Z,4.43
2023-07-21T22:09:18.489Z,2.55
2023-07-21T22:11:45.930Z,4.15
2023-07-21T22:14:13.393Z,3.22
2023-07-21T22:16:40.872Z,3.90
2023-07-21T22:19:08.540Z,1.30
2023-07-21T22:21:35.960Z,2.75
2023-07-21T22:24:03.387Z,1.70
2023-07-21T22:26:30.932Z,2.67
2023-07-21T22:28:58.384Z,1.60
2023-07-21T22:31:26.016Z,6.13
2023-07-21T22:33:53.507Z,2.15
2023-07-21T22:36:22.155Z,2.20
2023-07-21T22:38:52.394Z,2.55
2023-07-21T22:41:19.964Z,2.05
2023-07-21T22:43:47.282Z,2.92
2023-07-21T22:46:14.740Z,4.65
2023-07-21T22:48:42.159Z,2.22
2023-07-21T22:51:10.007Z,2.17
2023-07-21T22:53:39.794Z,2.58
2023-07-21T22:56:08.251Z,2.05
2023-07-21T22:58:36.235Z,2.63
2023-07-21T23:01:11.777Z,4.32
2023-07-21T23:03:39.490Z,3.30
2023-07-21T23:06:06.903Z,1.90
2023-07-21T23:08:34.681Z,1.33
2023-07-21T23:11:02.516Z,2.30
2023-07-21T23:13:29.977Z,3.15
2023-07-21T23:15:57.533Z,2.08
2023-07-21T23:18:25.135Z,2.97
2023-07-21T23:20:52.740Z,4.28
2023-07-21T23:23:20.321Z,2.05
2023-07-21T23:25:48.710Z,1.90
2023-07-21T23:28:16.326Z,1.30
2023-07-21T23:30:45.133Z,1.58
2023-07-21T23:33:12.816Z,1.63
2023-07-21T23:35:43.755Z,2.90
2023-07-21T23:38:11.711Z,3.38
2023-07-21T23:40:39.263Z,4.15
2023-07-21T23:43:07.816Z,1.92
2023-07-21T23:45:35.186Z,4.43
2023-07-21T23:48:02.647Z,3.55
2023-07-21T23:50:30.549Z,2.35
2023-07-21T23:52:59.299Z,3.38
2023-07-21T23:55:26.761Z,4.10
2023-07-21T23:57:54.138Z,2.40
